Milltown, MT

7:27 AM MST on December 04, 2016 (GMT -0700)
513 Montana Ave East Missoula Montana | | Change Station
Active Advisory: Winter Storm Warning

Elev 3261 ft 46.87 °N, 113.94 °W | Updated 26 seconds ago

Overcast
Overcast
31.5 °F
Feels Like 32 °F
N
0.0
Wind Variable Wind from ESE

Today
High -- | Low -- °F
--% Chance of Precip.
Yesterday
High -- | Low -- °F
Precip. -- in
Pressure 29.88 in
Visibility 10.0 miles
Clouds Overcast 6500 ft
Windchill 32 °F
Dew Point 31 °F
Humidity 98%
Rainfall 0.00 in
Snow Depth Not available.
8:04 AM 4:47 PM
Waxing Crescent, 23% visible
METAR KMSO 041353Z VRB05KT 10SM OVC065 01/M02 A2980 RMK AO2 SLP116 T00111017
Pressure 29.88 in
Visibility 10.0 miles
Clouds Overcast 6500 ft
Windchill 32 °F
Dew Point 31 °F
Humidity 98%
Rainfall 0.00 in
Snow Depth Not available.
8:04 AM 4:47 PM
Waxing Crescent, 23% visible
METAR KMSO 041353Z VRB05KT 10SM OVC065 01/M02 A2980 RMK AO2 SLP116 T00111017

10-Day Weather Forecast

Almanac

Astronomy

Dec. 04, 2016 Rise Set
Actual Time
Civil Twilight
Nautical Twilight
Astronomical Twilight
Moon
Length of Visible Light
Length of Day
Tomorrow will be .
, % of the Moon is Illuminated

Today's Extremes

State Highs State Lows

Community

WunderPhotos

Upload Photos

1,955,598 photos uploaded!

WunderBlog® & News

Nearby

Air Quality

  Air Quality AQ Index Pollutant
Not available.

Snow Depth

Station Depth Elevation

Earthquake Activity

City Distance Mag. Time & Date
Minimum magnitude displayed is 2.5.

Coastal Water Temperatures

Place Temperature

Stations

Nearby Weather Stations

Station Location Temp. Windchill Dew Point Humidity Wind Precip. Elev Updated Type
                   

Watches & Warnings

Winter Storm Warning
Issued: 8:42 PM MST Dec. 3, 2016 – National Weather Service

... Winter Storm Warning remains in effect from 11 am Sunday to
11 am MST Monday...

* impacts/timing: snow will continue today and increase in
intensity overnight tonight and Sunday morning. The
combination of accumulating snow, wind, and quickly dropping
temperatures will create hazardous travel conditions during
Sunday evening that may extend through Monday morning.

* Snow accumulations by Sunday night: Seeley Lake to Condon 5 to
8 inches. Highway 200 and I-90 East Missoula to Bearmouth 3 to
6 inches.

* Winds: gusty west northwest winds of 25 to 35 miles per hour
with the cold front Sunday evening.

* Locations impacted include: Highway 200 Bonner to Greenough,
Highway 83 Seeley Lake to Condon, and I-90 East Missoula to
Bearmouth